sensor_id;sensor_type;location;lat;lon;timestamp;P1;durP1;ratioP1;P2;durP2;ratioP2
505;SDS011;551;48.524;9.056;2023-06-10T00:01:00;9.10;;;8.20;;
505;SDS011;551;48.524;9.056;2023-06-10T00:03:26;9.50;;;8.50;;
505;SDS011;551;48.524;9.056;2023-06-10T00:05:51;9.40;;;8.50;;
505;SDS011;551;48.524;9.056;2023-06-10T00:08:18;8.63;;;7.93;;
505;SDS011;551;48.524;9.056;2023-06-10T00:10:44;9.40;;;8.43;;
505;SDS011;551;48.524;9.056;2023-06-10T00:13:10;9.70;;;8.80;;
505;SDS011;551;48.524;9.056;2023-06-10T00:15:36;9.77;;;8.77;;
505;SDS011;551;48.524;9.056;2023-06-10T00:18:03;8.60;;;7.80;;
505;SDS011;551;48.524;9.056;2023-06-10T00:20:29;9.20;;;8.30;;
505;SDS011;551;48.524;9.056;2023-06-10T00:22:55;11.00;;;9.00;;
505;SDS011;551;48.524;9.056;2023-06-10T00:25:24;10.63;;;8.13;;
505;SDS011;551;48.524;9.056;2023-06-10T00:27:50;10.93;;;8.90;;
505;SDS011;551;48.524;9.056;2023-06-10T00:30:16;9.60;;;8.40;;
505;SDS011;551;48.524;9.056;2023-06-10T00:32:42;10.93;;;9.43;;
505;SDS011;551;48.524;9.056;2023-06-10T00:35:07;9.70;;;8.83;;
505;SDS011;551;48.524;9.056;2023-06-10T00:37:33;9.57;;;8.77;;
505;SDS011;551;48.524;9.056;2023-06-10T00:40:02;10.13;;;9.07;;
505;SDS011;551;48.524;9.056;2023-06-10T00:42:29;9.83;;;8.93;;
505;SDS011;551;48.524;9.056;2023-06-10T00:44:54;11.03;;;9.47;;
505;SDS011;551;48.524;9.056;2023-06-10T00:47:20;12.00;;;9.10;;
505;SDS011;551;48.524;9.056;2023-06-10T00:49:46;9.63;;;8.63;;
505;SDS011;551;48.524;9.056;2023-06-10T00:52:13;12.33;;;9.63;;
505;SDS011;551;48.524;9.056;2023-06-10T00:54:41;10.37;;;9.20;;
505;SDS011;551;48.524;9.056;2023-06-10T00:57:07;9.70;;;8.80;;
505;SDS011;551;48.524;9.056;2023-06-10T00:59:32;12.80;;;9.70;;
505;SDS011;551;48.524;9.056;2023-06-10T01:01:59;10.77;;;9.33;;
505;SDS011;551;48.524;9.056;2023-06-10T01:04:25;11.13;;;9.50;;
505;SDS011;551;48.524;9.056;2023-06-10T01:06:54;12.93;;;9.13;;
505;SDS011;551;48.524;9.056;2023-06-10T01:09:23;10.80;;;9.77;;
505;SDS011;551;48.524;9.056;2023-06-10T01:12:13;12.47;;;9.60;;
505;SDS011;551;48.524;9.056;2023-06-10T01:14:45;13.90;;;10.20;;
505;SDS011;551;48.524;9.056;2023-06-10T01:17:11;10.80;;;9.70;;
505;SDS011;551;48.524;9.056;2023-06-10T01:19:41;11.53;;;9.60;;
505;SDS011;551;48.524;9.056;2023-06-10T01:22:08;10.03;;;9.00;;
505;SDS011;551;48.524;9.056;2023-06-10T01:24:35;9.63;;;8.73;;
505;SDS011;551;48.524;9.056;2023-06-10T01:27:01;9.83;;;9.03;;
505;SDS011;551;48.524;9.056;2023-06-10T01:29:33;10.47;;;9.47;;
505;SDS011;551;48.524;9.056;2023-06-10T01:32:06;9.80;;;8.80;;
505;SDS011;551;48.524;9.056;2023-06-10T01:34:37;10.27;;;9.33;;
505;SDS011;551;48.524;9.056;2023-06-10T01:37:07;9.33;;;8.43;;
505;SDS011;551;48.524;9.056;2023-06-10T01:39:35;11.37;;;9.70;;
505;SDS011;551;48.524;9.056;2023-06-10T01:42:01;9.37;;;8.43;;
505;SDS011;551;48.524;9.056;2023-06-10T01:44:28;11.47;;;9.93;;
505;SDS011;551;48.524;9.056;2023-06-10T01:46:53;9.17;;;8.37;;
505;SDS011;551;48.524;9.056;2023-06-10T01:49:19;11.23;;;9.47;;
505;SDS011;551;48.524;9.056;2023-06-10T01:51:46;11.17;;;9.50;;
505;SDS011;551;48.524;9.056;2023-06-10T01:54:12;9.83;;;8.93;;
505;SDS011;551;48.524;9.056;2023-06-10T01:56:37;10.43;;;9.47;;
505;SDS011;551;48.524;9.056;2023-06-10T01:59:03;10.83;;;9.67;;
505;SDS011;551;48.524;9.056;2023-06-10T02:01:28;10.37;;;9.27;;
505;SDS011;551;48.524;9.056;2023-06-10T02:03:54;10.73;;;9.83;;
505;SDS011;551;48.524;9.056;2023-06-10T02:06:20;11.20;;;10.10;;
505;SDS011;551;48.524;9.056;2023-06-10T02:08:46;11.23;;;10.00;;
505;SDS011;551;48.524;9.056;2023-06-10T02:11:11;12.10;;;10.20;;
505;SDS011;551;48.524;9.056;2023-06-10T02:13:38;11.60;;;9.53;;
505;SDS011;551;48.524;9.056;2023-06-10T02:16:04;10.97;;;9.17;;
505;SDS011;551;48.524;9.056;2023-06-10T02:18:30;10.00;;;9.10;;
505;SDS011;551;48.524;9.056;2023-06-10T02:20:56;10.87;;;9.70;;
505;SDS011;551;48.524;9.056;2023-06-10T02:23:22;10.37;;;9.50;;
505;SDS011;551;48.524;9.056;2023-06-10T02:25:47;10.10;;;9.20;;
505;SDS011;551;48.524;9.056;2023-06-10T02:28:13;10.97;;;9.87;;
505;SDS011;551;48.524;9.056;2023-06-10T02:30:40;11.73;;;9.90;;
505;SDS011;551;48.524;9.056;2023-06-10T02:33:06;11.53;;;10.33;;
505;SDS011;551;48.524;9.056;2023-06-10T02:35:34;11.90;;;10.80;;
505;SDS011;551;48.524;9.056;2023-06-10T02:38:01;13.50;;;10.70;;
505;SDS011;551;48.524;9.056;2023-06-10T02:40:27;13.73;;;10.33;;
505;SDS011;551;48.524;9.056;2023-06-10T02:42:52;11.00;;;9.90;;
505;SDS011;551;48.524;9.056;2023-06-10T02:45:18;14.10;;;10.40;;
505;SDS011;551;48.524;9.056;2023-06-10T02:47:44;11.60;;;10.53;;
505;SDS011;551;48.524;9.056;2023-06-10T02:50:09;12.87;;;11.60;;
505;SDS011;551;48.524;9.056;2023-06-10T02:52:35;12.43;;;10.97;;
505;SDS011;551;48.524;9.056;2023-06-10T02:55:00;12.83;;;10.20;;
505;SDS011;551;48.524;9.056;2023-06-10T02:57:26;12.13;;;11.00;;
505;SDS011;551;48.524;9.056;2023-06-10T02:59:51;12.00;;;10.80;;
505;SDS011;551;48.524;9.056;2023-06-10T03:02:18;12.53;;;10.90;;
505;SDS011;551;48.524;9.056;2023-06-10T03:04:44;10.23;;;9.30;;
505;SDS011;551;48.524;9.056;2023-06-10T03:07:10;10.97;;;9.93;;
505;SDS011;551;48.524;9.056;2023-06-10T03:09:36;11.80;;;10.73;;
505;SDS011;551;48.524;9.056;2023-06-10T03:12:02;12.50;;;11.30;;
505;SDS011;551;48.524;9.056;2023-06-10T03:14:27;12.30;;;11.00;;
505;SDS011;551;48.524;9.056;2023-06-10T03:16:53;15.07;;;10.90;;
505;SDS011;551;48.524;9.056;2023-06-10T03:19:19;11.27;;;9.87;;
505;SDS011;551;48.524;9.056;2023-06-10T03:21:49;12.40;;;11.30;;
505;SDS011;551;48.524;9.056;2023-06-10T03:24:19;13.50;;;10.80;;
505;SDS011;551;48.524;9.056;2023-06-10T03:26:45;11.90;;;10.70;;
505;SDS011;551;48.524;9.056;2023-06-10T03:29:11;12.00;;;10.90;;
505;SDS011;551;48.524;9.056;2023-06-10T03:31:36;12.37;;;10.20;;
505;SDS011;551;48.524;9.056;2023-06-10T03:34:02;11.90;;;10.77;;
505;SDS011;551;48.524;9.056;2023-06-10T03:36:27;11.37;;;10.27;;
505;SDS011;551;48.524;9.056;2023-06-10T03:38:54;11.50;;;10.40;;
505;SDS011;551;48.524;9.056;2023-06-10T03:41:21;11.93;;;10.83;;
505;SDS011;551;48.524;9.056;2023-06-10T03:43:47;12.87;;;9.60;;
505;SDS011;551;48.524;9.056;2023-06-10T03:46:13;14.50;;;10.47;;
505;SDS011;551;48.524;9.056;2023-06-10T03:48:39;12.33;;;11.13;;
505;SDS011;551;48.524;9.056;2023-06-10T03:51:04;10.53;;;9.53;;
505;SDS011;551;48.524;9.056;2023-06-10T03:53:30;13.07;;;10.40;;
505;SDS011;551;48.524;9.056;2023-06-10T03:55:55;11.07;;;9.80;;
505;SDS011;551;48.524;9.056;2023-06-10T03:58:22;10.70;;;9.70;;
505;SDS011;551;48.524;9.056;2023-06-10T04:00:48;11.97;;;10.77;;
505;SDS011;551;48.524;9.056;2023-06-10T04:03:14;11.07;;;10.07;;
505;SDS011;551;48.524;9.056;2023-06-10T04:05:40;12.17;;;10.93;;
505;SDS011;551;48.524;9.056;2023-06-10T04:08:09;12.10;;;11.00;;
505;SDS011;551;48.524;9.056;2023-06-10T04:10:35;14.40;;;10.90;;
505;SDS011;551;48.524;9.056;2023-06-10T04:13:00;11.93;;;10.53;;
505;SDS011;551;48.524;9.056;2023-06-10T04:15:26;14.20;;;11.77;;
505;SDS011;551;48.524;9.056;2023-06-10T04:17:51;11.37;;;10.27;;
505;SDS011;551;48.524;9.056;2023-06-10T04:20:17;14.07;;;11.40;;
505;SDS011;551;48.524;9.056;2023-06-10T04:22:43;13.20;;;10.57;;
505;SDS011;551;48.524;9.056;2023-06-10T04:25:09;13.33;;;10.30;;
505;SDS011;551;48.524;9.056;2023-06-10T04:27:35;10.93;;;9.80;;
505;SDS011;551;48.524;9.056;2023-06-10T04:30:00;12.50;;;11.33;;
505;SDS011;551;48.524;9.056;2023-06-10T04:32:27;10.80;;;9.60;;
505;SDS011;551;48.524;9.056;2023-06-10T04:34:52;11.90;;;10.67;;
505;SDS011;551;48.524;9.056;2023-06-10T04:37:18;12.50;;;11.17;;
505;SDS011;551;48.524;9.056;2023-06-10T04:39:44;14.50;;;11.33;;
505;SDS011;551;48.524;9.056;2023-06-10T04:42:10;12.97;;;11.70;;
505;SDS011;551;48.524;9.056;2023-06-10T04:44:36;11.73;;;10.53;;
505;SDS011;551;48.524;9.056;2023-06-10T04:47:01;17.23;;;11.47;;
505;SDS011;551;48.524;9.056;2023-06-10T04:49:27;12.10;;;11.00;;
505;SDS011;551;48.524;9.056;2023-06-10T04:51:54;12.63;;;11.03;;
505;SDS011;551;48.524;9.056;2023-06-10T04:54:20;11.17;;;10.10;;
505;SDS011;551;48.524;9.056;2023-06-10T04:56:45;12.47;;;11.27;;
505;SDS011;551;48.524;9.056;2023-06-10T04:59:11;11.40;;;9.90;;
505;SDS011;551;48.524;9.056;2023-06-10T05:01:37;9.13;;;8.30;;
505;SDS011;551;48.524;9.056;2023-06-10T05:04:05;8.60;;;7.83;;
505;SDS011;551;48.524;9.056;2023-06-10T05:06:31;9.97;;;9.07;;
505;SDS011;551;48.524;9.056;2023-06-10T05:08:56;11.70;;;8.70;;
505;SDS011;551;48.524;9.056;2023-06-10T05:11:22;10.77;;;9.73;;
505;SDS011;551;48.524;9.056;2023-06-10T05:13:47;10.13;;;9.10;;
505;SDS011;551;48.524;9.056;2023-06-10T05:16:13;10.13;;;9.23;;
505;SDS011;551;48.524;9.056;2023-06-10T05:18:40;9.90;;;8.90;;
505;SDS011;551;48.524;9.056;2023-06-10T05:21:05;10.50;;;9.40;;
505;SDS011;551;48.524;9.056;2023-06-10T05:23:31;10.97;;;9.90;;
505;SDS011;551;48.524;9.056;2023-06-10T05:25:56;10.93;;;9.87;;
505;SDS011;551;48.524;9.056;2023-06-10T05:28:23;9.97;;;9.17;;
505;SDS011;551;48.524;9.056;2023-06-10T05:30:48;10.13;;;9.23;;
505;SDS011;551;48.524;9.056;2023-06-10T05:33:14;10.20;;;9.30;;
505;SDS011;551;48.524;9.056;2023-06-10T05:35:40;11.47;;;10.47;;
505;SDS011;551;48.524;9.056;2023-06-10T05:38:05;9.67;;;8.97;;
505;SDS011;551;48.524;9.056;2023-06-10T05:40:31;10.47;;;9.50;;
505;SDS011;551;48.524;9.056;2023-06-10T05:42:57;9.73;;;8.90;;
505;SDS011;551;48.524;9.056;2023-06-10T05:45:22;10.20;;;9.40;;
505;SDS011;551;48.524;9.056;2023-06-10T05:47:48;10.33;;;9.43;;
505;SDS011;551;48.524;9.056;2023-06-10T05:50:13;10.30;;;9.50;;
505;SDS011;551;48.524;9.056;2023-06-10T05:52:39;9.70;;;8.90;;
505;SDS011;551;48.524;9.056;2023-06-10T05:55:07;10.13;;;9.23;;
505;SDS011;551;48.524;9.056;2023-06-10T05:57:33;10.60;;;9.50;;
505;SDS011;551;48.524;9.056;2023-06-10T05:59:59;9.63;;;8.90;;
505;SDS011;551;48.524;9.056;2023-06-10T06:02:24;11.80;;;10.70;;
505;SDS011;551;48.524;9.056;2023-06-10T06:04:50;8.97;;;8.17;;
505;SDS011;551;48.524;9.056;2023-06-10T06:07:15;9.90;;;8.93;;
505;SDS011;551;48.524;9.056;2023-06-10T06:09:41;10.20;;;9.27;;
505;SDS011;551;48.524;9.056;2023-06-10T06:12:07;9.40;;;8.53;;
505;SDS011;551;48.524;9.056;2023-06-10T06:14:36;10.53;;;9.43;;
505;SDS011;551;48.524;9.056;2023-06-10T06:17:04;10.40;;;9.40;;
505;SDS011;551;48.524;9.056;2023-06-10T06:19:30;10.47;;;9.47;;
505;SDS011;551;48.524;9.056;2023-06-10T06:21:55;8.90;;;8.20;;
505;SDS011;551;48.524;9.056;2023-06-10T06:24:21;9.40;;;8.50;;
505;SDS011;551;48.524;9.056;2023-06-10T06:26:46;9.83;;;9.10;;
505;SDS011;551;48.524;9.056;2023-06-10T06:29:12;8.83;;;8.00;;
505;SDS011;551;48.524;9.056;2023-06-10T06:31:37;9.13;;;8.33;;
505;SDS011;551;48.524;9.056;2023-06-10T06:34:03;8.97;;;8.20;;
505;SDS011;551;48.524;9.056;2023-06-10T06:36:28;8.00;;;7.30;;
505;SDS011;551;48.524;9.056;2023-06-10T06:38:55;7.93;;;7.33;;
505;SDS011;551;48.524;9.056;2023-06-10T06:41:20;8.50;;;7.50;;
505;SDS011;551;48.524;9.056;2023-06-10T06:43:46;9.00;;;8.20;;
505;SDS011;551;48.524;9.056;2023-06-10T06:46:12;7.20;;;6.77;;
505;SDS011;551;48.524;9.056;2023-06-10T06:48:38;8.00;;;7.30;;
505;SDS011;551;48.524;9.056;2023-06-10T06:51:03;11.13;;;7.97;;
505;SDS011;551;48.524;9.056;2023-06-10T06:53:29;8.30;;;7.67;;
505;SDS011;551;48.524;9.056;2023-06-10T06:55:54;8.63;;;8.03;;
505;SDS011;551;48.524;9.056;2023-06-10T06:58:20;8.73;;;8.03;;
505;SDS011;551;48.524;9.056;2023-06-10T07:00:45;9.00;;;8.17;;
505;SDS011;551;48.524;9.056;2023-06-10T07:03:11;8.80;;;8.20;;
505;SDS011;551;48.524;9.056;2023-06-10T07:05:37;8.80;;;7.97;;
505;SDS011;551;48.524;9.056;2023-06-10T07:08:03;7.90;;;7.20;;
505;SDS011;551;48.524;9.056;2023-06-10T07:10:32;8.10;;;7.43;;
505;SDS011;551;48.524;9.056;2023-06-10T07:12:57;7.57;;;7.07;;
505;SDS011;551;48.524;9.056;2023-06-10T07:15:23;9.20;;;8.40;;
505;SDS011;551;48.524;9.056;2023-06-10T07:17:49;7.80;;;7.07;;
505;SDS011;551;48.524;9.056;2023-06-10T07:20:14;7.50;;;6.90;;
505;SDS011;551;48.524;9.056;2023-06-10T07:22:40;8.80;;;8.10;;
505;SDS011;551;48.524;9.056;2023-06-10T07:25:06;9.33;;;7.33;;
505;SDS011;551;48.524;9.056;2023-06-10T07:27:32;8.03;;;7.40;;
505;SDS011;551;48.524;9.056;2023-06-10T07:29:57;7.83;;;7.13;;
505;SDS011;551;48.524;9.056;2023-06-10T07:32:23;8.67;;;7.00;;
505;SDS011;551;48.524;9.056;2023-06-10T07:34:49;7.27;;;6.77;;
505;SDS011;551;48.524;9.056;2023-06-10T07:37:15;7.20;;;6.70;;
505;SDS011;551;48.524;9.056;2023-06-10T07:39:41;8.37;;;7.70;;
505;SDS011;551;48.524;9.056;2023-06-10T07:42:08;8.20;;;7.50;;
505;SDS011;551;48.524;9.056;2023-06-10T07:44:33;7.87;;;7.37;;
505;SDS011;551;48.524;9.056;2023-06-10T07:46:59;8.47;;;7.77;;
505;SDS011;551;48.524;9.056;2023-06-10T07:49:25;8.17;;;7.50;;
505;SDS011;551;48.524;9.056;2023-06-10T07:51:50;7.70;;;7.20;;
505;SDS011;551;48.524;9.056;2023-06-10T07:54:16;7.73;;;7.07;;
505;SDS011;551;48.524;9.056;2023-06-10T07:56:41;7.50;;;7.00;;
505;SDS011;551;48.524;9.056;2023-06-10T07:59:07;7.30;;;6.80;;
505;SDS011;551;48.524;9.056;2023-06-10T08:01:32;7.43;;;6.93;;
505;SDS011;551;48.524;9.056;2023-06-10T08:03:58;6.87;;;6.47;;
505;SDS011;551;48.524;9.056;2023-06-10T08:06:23;7.47;;;6.73;;
505;SDS011;551;48.524;9.056;2023-06-10T08:08:49;7.97;;;6.30;;
505;SDS011;551;48.524;9.056;2023-06-10T08:11:14;7.47;;;6.97;;
505;SDS011;551;48.524;9.056;2023-06-10T08:13:40;7.00;;;6.50;;
505;SDS011;551;48.524;9.056;2023-06-10T08:16:06;7.00;;;6.60;;
505;SDS011;551;48.524;9.056;2023-06-10T08:18:32;7.23;;;6.57;;
505;SDS011;551;48.524;9.056;2023-06-10T08:20:58;7.00;;;6.43;;
505;SDS011;551;48.524;9.056;2023-06-10T08:23:23;7.10;;;6.50;;
505;SDS011;551;48.524;9.056;2023-06-10T08:25:49;6.93;;;6.40;;
505;SDS011;551;48.524;9.056;2023-06-10T08:28:14;6.60;;;6.00;;
505;SDS011;551;48.524;9.056;2023-06-10T08:30:40;7.07;;;6.57;;
505;SDS011;551;48.524;9.056;2023-06-10T08:33:05;7.23;;;6.53;;
505;SDS011;551;48.524;9.056;2023-06-10T08:35:31;7.63;;;7.13;;
505;SDS011;551;48.524;9.056;2023-06-10T08:37:57;6.10;;;5.70;;
505;SDS011;551;48.524;9.056;2023-06-10T08:40:22;7.07;;;6.67;;
505;SDS011;551;48.524;9.056;2023-06-10T08:42:49;6.80;;;6.30;;
505;SDS011;551;48.524;9.056;2023-06-10T08:45:23;6.80;;;6.10;;
505;SDS011;551;48.524;9.056;2023-06-10T08:47:49;6.17;;;5.67;;
505;SDS011;551;48.524;9.056;2023-06-10T08:50:18;6.20;;;5.90;;
505;SDS011;551;48.524;9.056;2023-06-10T08:52:44;7.00;;;6.53;;
505;SDS011;551;48.524;9.056;2023-06-10T08:55:16;5.87;;;5.47;;
505;SDS011;551;48.524;9.056;2023-06-10T08:57:44;6.30;;;5.93;;
505;SDS011;551;48.524;9.056;2023-06-10T09:00:11;6.40;;;5.77;;
505;SDS011;551;48.524;9.056;2023-06-10T09:02:38;6.07;;;5.67;;
505;SDS011;551;48.524;9.056;2023-06-10T09:05:03;7.30;;;6.37;;
505;SDS011;551;48.524;9.056;2023-06-10T09:07:32;5.70;;;5.20;;
505;SDS011;551;48.524;9.056;2023-06-10T09:10:01;6.50;;;6.10;;
505;SDS011;551;48.524;9.056;2023-06-10T09:12:28;6.80;;;6.30;;
505;SDS011;551;48.524;9.056;2023-06-10T09:14:54;6.27;;;5.87;;
505;SDS011;551;48.524;9.056;2023-06-10T09:17:20;6.33;;;5.73;;
505;SDS011;551;48.524;9.056;2023-06-10T09:19:46;6.93;;;6.43;;
505;SDS011;551;48.524;9.056;2023-06-10T09:22:12;6.57;;;6.13;;
505;SDS011;551;48.524;9.056;2023-06-10T09:24:38;6.57;;;6.07;;
505;SDS011;551;48.524;9.056;2023-06-10T09:27:05;5.80;;;5.40;;
505;SDS011;551;48.524;9.056;2023-06-10T09:29:44;6.90;;;6.40;;
505;SDS011;551;48.524;9.056;2023-06-10T09:32:12;7.00;;;6.50;;
505;SDS011;551;48.524;9.056;2023-06-10T09:34:38;6.00;;;5.70;;
505;SDS011;551;48.524;9.056;2023-06-10T09:37:04;6.17;;;5.77;;
505;SDS011;551;48.524;9.056;2023-06-10T09:39:30;7.10;;;5.90;;
505;SDS011;551;48.524;9.056;2023-06-10T09:41:55;5.83;;;5.50;;
505;SDS011;551;48.524;9.056;2023-06-10T09:44:21;5.83;;;5.43;;
505;SDS011;551;48.524;9.056;2023-06-10T09:46:47;6.00;;;5.60;;
505;SDS011;551;48.524;9.056;2023-06-10T09:49:15;5.80;;;5.40;;
505;SDS011;551;48.524;9.056;2023-06-10T09:51:48;6.03;;;5.53;;
505;SDS011;551;48.524;9.056;2023-06-10T09:54:23;6.50;;;6.10;;
505;SDS011;551;48.524;9.056;2023-06-10T09:56:49;6.00;;;5.60;;
505;SDS011;551;48.524;9.056;2023-06-10T09:59:16;5.13;;;4.83;;
505;SDS011;551;48.524;9.056;2023-06-10T10:01:55;5.20;;;4.80;;
505;SDS011;551;48.524;9.056;2023-06-10T10:04:24;6.30;;;5.90;;
505;SDS011;551;48.524;9.056;2023-06-10T10:06:50;5.70;;;5.40;;
505;SDS011;551;48.524;9.056;2023-06-10T10:09:16;5.90;;;5.50;;
505;SDS011;551;48.524;9.056;2023-06-10T10:11:41;5.23;;;4.93;;
505;SDS011;551;48.524;9.056;2023-06-10T10:14:09;6.00;;;5.60;;
505;SDS011;551;48.524;9.056;2023-06-10T10:16:37;6.07;;;5.50;;
505;SDS011;551;48.524;9.056;2023-06-10T10:19:15;6.20;;;5.80;;
505;SDS011;551;48.524;9.056;2023-06-10T10:21:49;5.10;;;4.80;;
505;SDS011;551;48.524;9.056;2023-06-10T10:24:18;5.90;;;5.50;;
505;SDS011;551;48.524;9.056;2023-06-10T10:26:48;6.03;;;5.60;;
505;SDS011;551;48.524;9.056;2023-06-10T10:29:25;5.57;;;5.17;;
505;SDS011;551;48.524;9.056;2023-06-10T10:31:56;5.70;;;5.20;;
505;SDS011;551;48.524;9.056;2023-06-10T10:34:29;5.43;;;4.97;;
505;SDS011;551;48.524;9.056;2023-06-10T10:37:00;5.43;;;5.10;;
505;SDS011;551;48.524;9.056;2023-06-10T10:39:26;5.10;;;4.80;;
505;SDS011;551;48.524;9.056;2023-06-10T10:41:53;5.37;;;5.00;;
505;SDS011;551;48.524;9.056;2023-06-10T10:44:19;5.77;;;5.37;;
505;SDS011;551;48.524;9.056;2023-06-10T10:46:49;5.60;;;5.30;;
505;SDS011;551;48.524;9.056;2023-06-10T10:49:15;5.63;;;5.10;;
505;SDS011;551;48.524;9.056;2023-06-10T10:51:58;5.20;;;4.90;;
505;SDS011;551;48.524;9.056;2023-06-10T10:54:32;6.13;;;5.73;;
505;SDS011;551;48.524;9.056;2023-06-10T10:57:17;5.60;;;5.20;;
505;SDS011;551;48.524;9.056;2023-06-10T11:02:17;5.80;;;5.30;;
505;SDS011;551;48.524;9.056;2023-06-10T11:04:46;5.77;;;5.43;;
505;SDS011;551;48.524;9.056;2023-06-10T11:07:12;5.47;;;5.00;;
505;SDS011;551;48.524;9.056;2023-06-10T11:09:57;5.00;;;4.70;;
505;SDS011;551;48.524;9.056;2023-06-10T11:12:23;5.10;;;4.80;;
505;SDS011;551;48.524;9.056;2023-06-10T11:14:55;5.03;;;4.63;;
505;SDS011;551;48.524;9.056;2023-06-10T11:17:21;5.37;;;5.07;;
505;SDS011;551;48.524;9.056;2023-06-10T11:19:47;4.70;;;4.40;;
505;SDS011;551;48.524;9.056;2023-06-10T11:22:16;5.90;;;5.50;;
505;SDS011;551;48.524;9.056;2023-06-10T11:24:47;5.27;;;4.77;;
505;SDS011;551;48.524;9.056;2023-06-10T11:32:29;5.60;;;5.20;;
505;SDS011;551;48.524;9.056;2023-06-10T11:34:56;5.40;;;5.10;;
505;SDS011;551;48.524;9.056;2023-06-10T11:37:22;5.73;;;5.37;;
505;SDS011;551;48.524;9.056;2023-06-10T11:39:54;5.90;;;5.37;;
505;SDS011;551;48.524;9.056;2023-06-10T11:42:21;5.40;;;5.07;;
505;SDS011;551;48.524;9.056;2023-06-10T11:44:48;5.40;;;5.00;;
505;SDS011;551;48.524;9.056;2023-06-10T11:47:15;5.17;;;4.83;;
505;SDS011;551;48.524;9.056;2023-06-10T11:49:40;5.50;;;5.10;;
505;SDS011;551;48.524;9.056;2023-06-10T11:52:06;6.17;;;5.67;;
505;SDS011;551;48.524;9.056;2023-06-10T11:54:31;5.50;;;5.10;;
505;SDS011;551;48.524;9.056;2023-06-10T11:56:58;7.37;;;5.23;;
505;SDS011;551;48.524;9.056;2023-06-10T11:59:26;5.60;;;5.20;;
505;SDS011;551;48.524;9.056;2023-06-10T12:01:53;5.43;;;4.90;;
505;SDS011;551;48.524;9.056;2023-06-10T12:04:18;5.37;;;5.07;;
505;SDS011;551;48.524;9.056;2023-06-10T12:06:44;5.77;;;5.23;;
505;SDS011;551;48.524;9.056;2023-06-10T12:09:17;5.00;;;4.70;;
505;SDS011;551;48.524;9.056;2023-06-10T12:12:02;4.80;;;4.50;;
505;SDS011;551;48.524;9.056;2023-06-10T12:17:19;6.13;;;5.37;;
505;SDS011;551;48.524;9.056;2023-06-10T12:19:46;6.60;;;5.87;;
505;SDS011;551;48.524;9.056;2023-06-10T12:22:13;5.30;;;4.97;;
505;SDS011;551;48.524;9.056;2023-06-10T12:24:45;5.87;;;5.37;;
505;SDS011;551;48.524;9.056;2023-06-10T12:27:24;5.30;;;4.80;;
505;SDS011;551;48.524;9.056;2023-06-10T12:29:52;6.37;;;5.77;;
505;SDS011;551;48.524;9.056;2023-06-10T12:32:21;4.83;;;4.53;;
505;SDS011;551;48.524;9.056;2023-06-10T12:34:54;5.70;;;5.30;;
505;SDS011;551;48.524;9.056;2023-06-10T12:37:29;5.50;;;4.70;;
505;SDS011;551;48.524;9.056;2023-06-10T12:39:55;5.87;;;5.47;;
505;SDS011;551;48.524;9.056;2023-06-10T12:42:22;4.50;;;4.17;;
505;SDS011;551;48.524;9.056;2023-06-10T12:44:52;4.97;;;4.67;;
505;SDS011;551;48.524;9.056;2023-06-10T12:47:18;5.67;;;5.17;;
505;SDS011;551;48.524;9.056;2023-06-10T12:49:44;5.17;;;4.73;;
505;SDS011;551;48.524;9.056;2023-06-10T12:52:09;5.60;;;5.10;;
505;SDS011;551;48.524;9.056;2023-06-10T12:54:35;4.83;;;4.43;;
505;SDS011;551;48.524;9.056;2023-06-10T12:57:01;4.53;;;4.23;;
505;SDS011;551;48.524;9.056;2023-06-10T12:59:27;5.40;;;4.93;;
505;SDS011;551;48.524;9.056;2023-06-10T13:01:53;5.47;;;5.07;;
505;SDS011;551;48.524;9.056;2023-06-10T13:04:19;9.30;;;4.90;;
505;SDS011;551;48.524;9.056;2023-06-10T13:06:46;4.57;;;4.27;;
505;SDS011;551;48.524;9.056;2023-06-10T13:09:15;4.80;;;4.40;;
505;SDS011;551;48.524;9.056;2023-06-10T13:11:41;5.20;;;4.80;;
505;SDS011;551;48.524;9.056;2023-06-10T13:14:08;5.27;;;4.90;;
505;SDS011;551;48.524;9.056;2023-06-10T13:16:34;4.47;;;4.13;;
505;SDS011;551;48.524;9.056;2023-06-10T13:19:01;5.10;;;4.70;;
505;SDS011;551;48.524;9.056;2023-06-10T13:21:30;4.80;;;4.40;;
505;SDS011;551;48.524;9.056;2023-06-10T13:23:55;4.93;;;4.53;;
505;SDS011;551;48.524;9.056;2023-06-10T13:26:21;4.87;;;4.57;;
505;SDS011;551;48.524;9.056;2023-06-10T13:28:46;4.93;;;4.53;;
505;SDS011;551;48.524;9.056;2023-06-10T13:31:12;5.80;;;5.23;;
505;SDS011;551;48.524;9.056;2023-06-10T13:33:37;4.43;;;4.13;;
505;SDS011;551;48.524;9.056;2023-06-10T13:36:03;4.90;;;4.50;;
505;SDS011;551;48.524;9.056;2023-06-10T13:38:29;4.60;;;4.27;;
505;SDS011;551;48.524;9.056;2023-06-10T13:40:55;4.63;;;4.33;;
505;SDS011;551;48.524;9.056;2023-06-10T13:43:20;4.77;;;4.40;;
505;SDS011;551;48.524;9.056;2023-06-10T13:45:46;4.43;;;4.13;;
505;SDS011;551;48.524;9.056;2023-06-10T13:48:11;5.93;;;5.43;;
505;SDS011;551;48.524;9.056;2023-06-10T13:50:37;4.30;;;3.97;;
505;SDS011;551;48.524;9.056;2023-06-10T13:53:03;4.77;;;4.43;;
505;SDS011;551;48.524;9.056;2023-06-10T13:55:28;6.67;;;4.40;;
505;SDS011;551;48.524;9.056;2023-06-10T13:57:57;6.97;;;4.30;;
505;SDS011;551;48.524;9.056;2023-06-10T14:00:22;5.20;;;4.63;;
505;SDS011;551;48.524;9.056;2023-06-10T14:02:48;4.80;;;4.17;;
505;SDS011;551;48.524;9.056;2023-06-10T14:05:13;4.23;;;3.93;;
505;SDS011;551;48.524;9.056;2023-06-10T14:07:39;5.33;;;4.93;;
505;SDS011;551;48.524;9.056;2023-06-10T14:10:05;5.07;;;4.70;;
505;SDS011;551;48.524;9.056;2023-06-10T14:12:33;4.57;;;4.23;;
505;SDS011;551;48.524;9.056;2023-06-10T14:14:58;4.67;;;4.37;;
505;SDS011;551;48.524;9.056;2023-06-10T14:17:24;5.17;;;4.83;;
505;SDS011;551;48.524;9.056;2023-06-10T14:19:50;4.87;;;4.47;;
505;SDS011;551;48.524;9.056;2023-06-10T14:22:15;5.53;;;5.03;;
505;SDS011;551;48.524;9.056;2023-06-10T14:24:40;5.50;;;5.17;;
505;SDS011;551;48.524;9.056;2023-06-10T14:27:06;6.10;;;5.10;;
505;SDS011;551;48.524;9.056;2023-06-10T14:29:32;5.13;;;4.60;;
505;SDS011;551;48.524;9.056;2023-06-10T14:31:58;5.37;;;4.30;;
505;SDS011;551;48.524;9.056;2023-06-10T14:34:24;4.37;;;4.07;;
505;SDS011;551;48.524;9.056;2023-06-10T14:36:53;4.70;;;4.30;;
505;SDS011;551;48.524;9.056;2023-06-10T14:39:19;5.00;;;4.60;;
505;SDS011;551;48.524;9.056;2023-06-10T14:41:45;5.00;;;4.60;;
505;SDS011;551;48.524;9.056;2023-06-10T14:44:10;4.07;;;3.87;;
505;SDS011;551;48.524;9.056;2023-06-10T14:46:36;4.77;;;4.47;;
505;SDS011;551;48.524;9.056;2023-06-10T14:49:01;4.83;;;4.53;;
505;SDS011;551;48.524;9.056;2023-06-10T14:51:27;5.23;;;4.40;;
505;SDS011;551;48.524;9.056;2023-06-10T14:53:53;6.00;;;5.27;;
505;SDS011;551;48.524;9.056;2023-06-10T14:56:18;6.40;;;4.37;;
505;SDS011;551;48.524;9.056;2023-06-10T14:58:44;4.93;;;4.53;;
505;SDS011;551;48.524;9.056;2023-06-10T15:01:10;6.10;;;5.50;;
505;SDS011;551;48.524;9.056;2023-06-10T15:03:35;4.80;;;4.50;;
505;SDS011;551;48.524;9.056;2023-06-10T15:06:01;5.00;;;4.60;;
505;SDS011;551;48.524;9.056;2023-06-10T15:08:26;5.43;;;5.03;;
505;SDS011;551;48.524;9.056;2023-06-10T15:10:53;5.40;;;5.07;;
505;SDS011;551;48.524;9.056;2023-06-10T15:13:19;6.57;;;5.07;;
505;SDS011;551;48.524;9.056;2023-06-10T15:15:44;5.23;;;4.83;;
505;SDS011;551;48.524;9.056;2023-06-10T15:18:10;5.27;;;4.73;;
505;SDS011;551;48.524;9.056;2023-06-10T15:20:36;5.23;;;4.73;;
505;SDS011;551;48.524;9.056;2023-06-10T15:23:01;5.30;;;4.93;;
505;SDS011;551;48.524;9.056;2023-06-10T15:25:27;5.40;;;5.00;;
505;SDS011;551;48.524;9.056;2023-06-10T15:27:52;6.03;;;5.43;;
505;SDS011;551;48.524;9.056;2023-06-10T15:30:18;5.40;;;4.87;;
505;SDS011;551;48.524;9.056;2023-06-10T15:32:43;7.20;;;4.90;;
505;SDS011;551;48.524;9.056;2023-06-10T15:35:09;5.47;;;5.10;;
505;SDS011;551;48.524;9.056;2023-06-10T15:37:34;5.27;;;4.77;;
505;SDS011;551;48.524;9.056;2023-06-10T15:40:00;5.10;;;4.70;;
505;SDS011;551;48.524;9.056;2023-06-10T15:42:26;5.20;;;4.90;;
505;SDS011;551;48.524;9.056;2023-06-10T15:44:51;6.50;;;4.70;;